Time;durP1;ratioP1;P1;durP2;ratioP2;P2;SDS_P1;SDS_P2;PMS_P1;PMS_P2;Temp;Humidity;BMP_temperature;BMP_pressure;BME280_temperature;BME280_humidity;BME280_pressure;Samples;Min_cycle;Max_cycle;Signal;HPM_P1;HPM_P2
2023/04/29 00:00:20;;;;;;;;;;;;;;;25.13;41.53;97100.45;615881;230;65031;-58
2023/04/29 00:02:48;;;;;;;;;;;;;;;25.13;40.44;97102.35;616095;230;68761;-58
2023/04/29 00:05:15;;;;;;;;;;;;;;;25.12;39.94;97104.22;612016;229;69568;-58
2023/04/29 00:07:43;;;;;;;;;;;;;;;25.12;41.22;97104.22;614926;230;65144;-58
2023/04/29 00:10:13;;;;;;;;;;;;;;;25.12;40.94;97111.50;612986;230;68660;-58
2023/04/29 00:12:41;;;;;;;;;;;;;;;25.11;41.23;97108.02;611313;230;66415;-58
2023/04/29 00:15:09;;;;;;;;;;;;;;;25.11;41.83;97109.91;611307;230;65089;-58
2023/04/29 00:17:36;;;;;;;;;;;;;;;25.09;43.08;97101.33;611586;230;68816;-58
2023/04/29 00:20:05;;;;;;;;;;;;;;;25.09;43.28;97102.13;615697;230;68551;-58
2023/04/29 00:22:33;;;;;;;;;;;;;;;25.09;41.16;97104.02;615731;230;63066;-58
2023/04/29 00:25:00;;;;;;;;;;;;;;;25.08;42.79;97105.92;615917;229;68692;-58
2023/04/29 00:27:28;;;;;;;;;;;;;;;25.07;40.54;97100.83;615179;230;68718;-58
2023/04/29 00:29:56;;;;;;;;;;;;;;;25.06;44.30;97105.41;611569;230;65921;-58
2023/04/29 00:32:23;;;;;;;;;;;;;;;25.05;40.64;97098.45;612836;230;68622;-58
2023/04/29 00:34:51;;;;;;;;;;;;;;;25.06;44.20;97096.55;605194;232;67781;-58
2023/04/29 00:37:18;;;;;;;;;;;;;;;25.03;42.05;97090.66;614909;230;65014;-58
2023/04/29 00:39:46;;;;;;;;;;;;;;;25.03;42.72;97087.18;615470;230;68947;-58
2023/04/29 00:42:13;;;;;;;;;;;;;;;25.03;42.53;97087.18;611389;230;68693;-59
2023/04/29 00:44:41;;;;;;;;;;;;;;;25.02;42.43;97086.39;613865;230;64951;-59
2023/04/29 00:47:11;;;;;;;;;;;;;;;25.02;43.48;97081.02;612952;229;68411;-58
2023/04/29 00:49:39;;;;;;;;;;;;;;;25.01;42.22;97073.23;611500;230;68624;-58
2023/04/29 00:52:10;;;;;;;;;;;;;;;24.99;43.01;97070.85;614873;230;66017;-58
2023/04/29 00:54:38;;;;;;;;;;;;;;;24.99;41.05;97073.55;611430;230;66938;-59
2023/04/29 00:57:06;;;;;;;;;;;;;;;24.98;39.62;97074.61;611340;230;68734;-58
2023/04/29 00:59:33;;;;;;;;;;;;;;;24.99;43.47;97068.16;615145;230;64850;-58
2023/04/29 01:02:02;;;;;;;;;;;;;;;24.97;41.03;97061.48;613961;230;66416;-58
2023/04/29 01:04:30;;;;;;;;;;;;;;;24.96;41.62;97058.00;614707;230;68918;-59
2023/04/29 01:07:06;;;;;;;;;;;;;;;24.96;40.55;97058.00;612666;230;64987;-60
2023/04/29 01:09:38;;;;;;;;;;;;;;;24.95;42.64;97042.95;611199;230;69226;-59
2023/04/29 01:12:10;;;;;;;;;;;;;;;24.95;43.10;97051.02;612176;230;66701;-58
2023/04/29 01:14:38;;;;;;;;;;;;;;;24.94;41.98;97054.80;613781;230;65120;-58
2023/04/29 01:17:07;;;;;;;;;;;;;;;24.92;41.00;97048.92;611104;230;69488;-58
2023/04/29 01:19:40;;;;;;;;;;;;;;;24.91;41.43;97044.65;611392;230;66560;-59
2023/04/29 01:22:08;;;;;;;;;;;;;;;24.92;43.09;97042.75;616093;230;65072;-59
2023/04/29 01:24:35;;;;;;;;;;;;;;;24.91;42.25;97038.45;613646;230;68807;-59
2023/04/29 01:27:04;;;;;;;;;;;;;;;24.90;41.06;97028.80;613303;230;69150;-59
2023/04/29 01:29:47;;;;;;;;;;;;;;;24.89;40.27;97030.70;612026;229;45018;-58
2023/04/29 01:32:16;;;;;;;;;;;;;;;24.87;41.91;97032.88;612694;230;68782;-59
2023/04/29 01:34:51;;;;;;;;;;;;;;;24.87;42.61;97027.50;613867;227;68337;-59
2023/04/29 01:37:23;;;;;;;;;;;;;;;24.86;41.78;97028.61;605247;230;64989;-58
2023/04/29 01:39:53;;;;;;;;;;;;;;;24.86;42.86;97036.67;614490;230;69336;-59
2023/04/29 01:42:37;;;;;;;;;;;;;;;24.85;43.08;97024.30;611402;231;69702;-59
2023/04/29 01:45:08;;;;;;;;;;;;;;;24.84;40.80;97028.09;615619;230;43101;-57
2023/04/29 01:47:37;;;;;;;;;;;;;;;24.85;43.24;97028.89;612159;230;68916;-58
2023/04/29 01:50:05;;;;;;;;;;;;;;;24.82;42.87;97030.27;612656;230;69277;-58
2023/04/29 01:52:32;;;;;;;;;;;;;;;24.82;43.43;97024.89;613156;230;62998;-58
2023/04/29 01:55:00;;;;;;;;;;;;;;;24.82;42.37;97030.27;611417;230;69338;-58
2023/04/29 01:57:29;;;;;;;;;;;;;;;24.81;42.64;97031.38;612407;230;47113;-58
2023/04/29 02:00:01;;;;;;;;;;;;;;;24.81;40.57;97026.00;614991;230;46679;-58
2023/04/29 02:02:45;;;;;;;;;;;;;;;24.79;42.61;97034.34;612796;230;45634;-59
2023/04/29 02:05:14;;;;;;;;;;;;;;;24.79;41.22;97038.93;605091;231;48063;-59
2023/04/29 02:07:44;;;;;;;;;;;;;;;24.78;42.52;97037.34;614322;230;46518;-59
2023/04/29 02:10:11;;;;;;;;;;;;;;;24.77;40.73;97030.36;611383;230;69256;-59
2023/04/29 02:12:40;;;;;;;;;;;;;;;24.77;41.99;97033.05;611374;230;69456;-59
2023/04/29 02:15:08;;;;;;;;;;;;;;;24.76;42.62;97031.46;615286;230;64067;-59
2023/04/29 02:17:35;;;;;;;;;;;;;;;24.75;42.33;97027.98;611272;230;68787;-59
2023/04/29 02:20:03;;;;;;;;;;;;;;;24.74;42.40;97025.58;612532;230;65236;-59
2023/04/29 02:22:31;;;;;;;;;;;;;;;24.74;41.67;97022.89;611265;230;64988;-59
2023/04/29 02:24:58;;;;;;;;;;;;;;;24.74;41.94;97017.52;611416;230;68637;-59
2023/04/29 02:27:26;;;;;;;;;;;;;;;24.73;42.50;97018.61;614625;230;69343;-59
2023/04/29 02:29:54;;;;;;;;;;;;;;;24.73;40.38;97023.99;612832;230;63769;-59
2023/04/29 02:32:21;;;;;;;;;;;;;;;24.73;43.16;97018.61;613519;229;66375;-59
2023/04/29 02:34:49;;;;;;;;;;;;;;;24.71;42.57;97012.73;611207;230;68747;-59
2023/04/29 02:37:16;;;;;;;;;;;;;;;24.70;42.26;97011.15;611251;230;65267;-59
2023/04/29 02:39:46;;;;;;;;;;;;;;;24.71;42.28;97004.67;613510;230;66194;-59
2023/04/29 02:42:13;;;;;;;;;;;;;;;24.69;42.83;97010.36;613718;229;66480;-59
2023/04/29 02:44:41;;;;;;;;;;;;;;;24.69;41.67;97004.16;614699;230;65236;-59
2023/04/29 02:47:08;;;;;;;;;;;;;;;24.69;41.43;97006.84;616704;229;68704;-59
2023/04/29 02:49:36;;;;;;;;;;;;;;;24.67;41.49;96998.30;615827;230;68434;-58
2023/04/29 02:52:04;;;;;;;;;;;;;;;24.66;42.14;97008.23;612344;230;64977;-59
2023/04/29 02:54:32;;;;;;;;;;;;;;;24.65;41.52;97001.27;614232;230;69360;-59
2023/04/29 02:56:59;;;;;;;;;;;;;;;24.66;41.69;97007.44;611465;231;69553;-59
2023/04/29 02:59:27;;;;;;;;;;;;;;;24.64;41.81;97004.27;614960;230;62678;-59
2023/04/29 03:01:54;;;;;;;;;;;;;;;24.64;41.67;97005.06;615237;229;66680;-59
2023/04/29 03:04:22;;;;;;;;;;;;;;;24.64;41.62;97009.65;611315;230;66711;-59
2023/04/29 03:06:50;;;;;;;;;;;;;;;24.63;43.73;97013.41;611445;230;65024;-59
2023/04/29 03:09:17;;;;;;;;;;;;;;;24.62;43.71;97007.24;611380;230;68607;-59
2023/04/29 03:11:46;;;;;;;;;;;;;;;24.61;42.01;97013.72;611410;230;67327;-59
2023/04/29 03:14:14;;;;;;;;;;;;;;;24.61;42.92;97010.20;611487;230;65133;-59
2023/04/29 03:16:41;;;;;;;;;;;;;;;24.61;41.47;97016.41;613410;230;66205;-59
2023/04/29 03:19:09;;;;;;;;;;;;;;;24.59;41.80;97021.27;613057;230;67291;-59
2023/04/29 03:21:37;;;;;;;;;;;;;;;24.58;42.10;97023.16;615854;230;65210;-59
2023/04/29 03:24:05;;;;;;;;;;;;;;;24.57;40.12;97020.75;612667;230;69089;-59
2023/04/29 03:26:33;;;;;;;;;;;;;;;24.57;43.61;97020.75;615929;230;66693;-59
2023/04/29 03:29:03;;;;;;;;;;;;;;;24.56;42.81;97028.02;616080;230;42489;-59
2023/04/29 03:31:30;;;;;;;;;;;;;;;24.56;43.31;97029.92;615240;230;68846;-59
2023/04/29 03:33:58;;;;;;;;;;;;;;;24.54;41.84;97027.52;614429;230;69548;-59
2023/04/29 03:36:25;;;;;;;;;;;;;;;24.53;42.29;97025.14;614584;230;64860;-59
2023/04/29 03:39:08;;;;;;;;;;;;;;;24.52;41.84;97029.69;613118;230;68431;-58
2023/04/29 03:41:36;;;;;;;;;;;;;;;24.52;42.19;97028.89;611530;230;68581;-58
2023/04/29 03:44:04;;;;;;;;;;;;;;;24.52;42.11;97037.75;613205;230;62987;-59
2023/04/29 03:46:31;;;;;;;;;;;;;;;24.51;41.51;97036.16;615816;229;68368;-58
2023/04/29 03:49:01;;;;;;;;;;;;;;;24.49;42.55;97041.02;612565;230;43073;-58
2023/04/29 03:51:28;;;;;;;;;;;;;;;24.50;43.19;97039.95;616013;230;62930;-58
2023/04/29 03:53:58;;;;;;;;;;;;;;;24.50;42.47;97039.13;613363;230;50066;-58
2023/04/29 03:56:25;;;;;;;;;;;;;;;24.49;42.98;97041.02;612735;230;68505;-58
2023/04/29 03:58:53;;;;;;;;;;;;;;;24.48;42.03;97039.44;613886;230;64885;-58
2023/04/29 04:01:21;;;;;;;;;;;;;;;24.47;41.47;97037.85;611590;230;66521;-58
2023/04/29 04:03:49;;;;;;;;;;;;;;;24.46;42.01;97041.61;612783;230;66332;-59
2023/04/29 04:06:16;;;;;;;;;;;;;;;24.46;41.71;97036.23;613859;230;62773;-59
2023/04/29 04:08:44;;;;;;;;;;;;;;;24.46;43.76;97036.23;611307;230;69254;-59
2023/04/29 04:11:14;;;;;;;;;;;;;;;24.44;42.09;97038.41;612186;230;47554;-59
2023/04/29 04:13:46;;;;;;;;;;;;;;;24.44;43.60;97037.63;614625;229;43964;-58
2023/04/29 04:16:14;;;;;;;;;;;;;;;24.43;42.62;97041.38;611543;230;69565;-58
2023/04/29 04:18:42;;;;;;;;;;;;;;;24.43;43.00;97038.69;611283;230;69141;-59
2023/04/29 04:21:10;;;;;;;;;;;;;;;24.41;43.06;97033.60;611265;230;65191;-59
2023/04/29 04:23:40;;;;;;;;;;;;;;;24.41;42.67;97033.60;613047;230;67347;-58
2023/04/29 04:26:08;;;;;;;;;;;;;;;24.40;43.29;97032.02;611282;230;66309;-59
2023/04/29 04:28:47;;;;;;;;;;;;;;;24.39;42.61;97033.12;604851;233;46294;-58
2023/04/29 04:31:22;;;;;;;;;;;;;;;24.39;41.21;97030.43;615261;229;49595;-58
2023/04/29 04:33:50;;;;;;;;;;;;;;;24.38;42.85;97026.92;611920;230;68747;-58
2023/04/29 04:36:20;;;;;;;;;;;;;;;24.38;43.62;97026.13;614732;230;65760;-59
2023/04/29 04:38:48;;;;;;;;;;;;;;;24.36;42.17;97023.75;611411;230;69174;-58
2023/04/29 04:41:15;;;;;;;;;;;;;;;24.36;43.26;97018.38;615031;226;68930;-58
2023/04/29 04:43:45;;;;;;;;;;;;;;;24.35;42.77;97014.08;619305;227;45006;-58
2023/04/29 04:46:17;;;;;;;;;;;;;;;24.35;40.46;97029.41;619152;228;48795;-58
2023/04/29 04:48:46;;;;;;;;;;;;;;;24.34;42.84;97033.98;617858;228;49780;-59
2023/04/29 04:51:16;;;;;;;;;;;;;;;24.33;42.84;97032.37;617864;228;65611;-58
2023/04/29 04:53:46;;;;;;;;;;;;;;;24.33;42.56;97026.20;619675;228;49883;-59
2023/04/29 04:56:15;;;;;;;;;;;;;;;24.32;42.48;97024.62;619031;229;46940;-59
2023/04/29 04:58:42;;;;;;;;;;;;;;;24.30;40.50;97030.27;618927;229;62928;-58
2023/04/29 05:01:10;;;;;;;;;;;;;;;24.31;42.45;97028.41;619114;229;67489;-58
2023/04/29 05:03:37;;;;;;;;;;;;;;;24.29;41.64;97027.89;618249;227;66664;-58
2023/04/29 05:06:05;;;;;;;;;;;;;;;24.30;43.24;97024.11;612950;229;67726;-59
2023/04/29 05:08:33;;;;;;;;;;;;;;;24.28;42.70;97024.41;617994;228;68740;-58
2023/04/29 05:11:01;;;;;;;;;;;;;;;24.29;43.29;97022.52;618310;228;65952;-59
2023/04/29 05:13:28;;;;;;;;;;;;;;;24.28;43.64;97021.73;619765;228;62641;-59
2023/04/29 05:15:56;;;;;;;;;;;;;;;24.28;43.06;97018.22;619315;228;68836;-58
2023/04/29 05:18:25;;;;;;;;;;;;;;;24.27;42.87;97022.80;619159;227;47186;-58
2023/04/29 05:20:53;;;;;;;;;;;;;;;24.27;43.27;97019.33;617977;228;64969;-59
2023/04/29 05:23:21;;;;;;;;;;;;;;;24.27;42.70;97016.64;620292;227;68660;-59
2023/04/29 05:25:49;;;;;;;;;;;;;;;24.27;43.23;97014.74;623205;226;69028;-59
2023/04/29 05:28:17;;;;;;;;;;;;;;;24.26;44.28;97020.42;619677;226;62382;-60
2023/04/29 05:30:45;;;;;;;;;;;;;;;24.26;42.36;97013.16;619942;227;69316;-60
2023/04/29 05:33:12;;;;;;;;;;;;;;;24.26;43.70;97010.47;619097;228;68475;-59
2023/04/29 05:35:40;;;;;;;;;;;;;;;24.26;43.12;97005.11;619423;228;62796;-60
2023/04/29 05:38:08;;;;;;;;;;;;;;;24.25;43.53;97003.48;618369;227;66865;-60
2023/04/29 05:40:40;;;;;;;;;;;;;;;24.26;42.36;97001.62;619339;227;50679;-60
2023/04/29 05:43:10;;;;;;;;;;;;;;;24.26;41.78;96999.73;617244;229;43551;-61
2023/04/29 05:45:37;;;;;;;;;;;;;;;24.26;42.77;96994.36;621511;227;69132;-59
2023/04/29 05:48:05;;;;;;;;;;;;;;;24.27;42.59;96993.26;620661;227;68534;-59
2023/04/29 05:50:34;;;;;;;;;;;;;;;24.28;41.50;96991.37;619192;229;62670;-60
2023/04/29 05:53:01;;;;;;;;;;;;;;;24.29;43.07;96996.45;619145;229;66661;-60
2023/04/29 05:55:29;;;;;;;;;;;;;;;24.29;44.03;96992.98;619570;228;68688;-60
2023/04/29 05:57:57;;;;;;;;;;;;;;;24.30;44.66;96999.94;618028;227;64921;-60
2023/04/29 06:00:24;;;;;;;;;;;;;;;24.31;45.14;96985.44;619493;228;68779;-60
2023/04/29 06:02:53;;;;;;;;;;;;;;;24.33;45.77;96988.60;619028;228;45881;-60
2023/04/29 06:05:22;;;;;;;;;;;;;;;24.31;44.46;96988.91;611085;228;67428;-60
2023/04/29 06:07:55;;;;;;;;;;;;;;;24.32;45.36;96987.02;608745;228;48543;-60
2023/04/29 06:10:28;;;;;;;;;;;;;;;24.32;38.69;96992.39;615569;228;48592;-60
2023/04/29 06:12:55;;;;;;;;;;;;;;;24.33;43.72;96991.29;619133;229;65066;-60
2023/04/29 06:15:23;;;;;;;;;;;;;;;24.35;41.37;96991.80;619012;227;66637;-60
2023/04/29 06:17:51;;;;;;;;;;;;;;;24.36;43.03;96990.70;619104;228;68300;-59
2023/04/29 06:20:18;;;;;;;;;;;;;;;24.36;39.10;96980.78;618897;228;65215;-59
2023/04/29 06:22:46;;;;;;;;;;;;;;;24.38;43.27;96975.89;618489;228;68616;-58
2023/04/29 06:25:16;;;;;;;;;;;;;;;24.41;43.09;96982.56;619545;228;68684;-58
2023/04/29 06:27:49;;;;;;;;;;;;;;;24.42;45.41;96986.86;618397;227;43855;-59
2023/04/29 06:30:18;;;;;;;;;;;;;;;24.45;45.81;96980.14;619189;228;45409;-58
2023/04/29 06:32:46;;;;;;;;;;;;;;;24.45;44.67;96988.98;619182;227;66609;-58
2023/04/29 06:35:13;;;;;;;;;;;;;;;24.47;44.35;96989.50;619070;227;65227;-59
2023/04/29 06:37:49;;;;;;;;;;;;;;;24.49;43.08;96984.61;619186;228;48815;-59
2023/04/29 06:40:19;;;;;;;;;;;;;;;24.51;44.35;96985.13;618771;228;48927;-58
2023/04/29 06:42:51;;;;;;;;;;;;;;;24.53;40.48;96982.94;617916;228;47479;-58
2023/04/29 06:45:27;;;;;;;;;;;;;;;24.56;42.98;96979.66;612875;227;49904;-59
2023/04/29 06:48:09;;;;;;;;;;;;;;;24.58;44.29;96980.17;618954;228;49956;-59
2023/04/29 06:50:38;;;;;;;;;;;;;;;24.59;40.50;96970.22;619164;229;43806;-59
2023/04/29 06:53:07;;;;;;;;;;;;;;;24.61;44.04;96968.05;619128;229;69259;-58
2023/04/29 06:55:35;;;;;;;;;;;;;;;24.62;43.56;96963.45;618176;228;68482;-58
2023/04/29 06:58:03;;;;;;;;;;;;;;;24.64;42.59;96964.76;619305;228;63064;-58
2023/04/29 07:00:31;;;;;;;;;;;;;;;24.66;46.34;96956.39;619312;228;68559;-59
2023/04/29 07:02:58;;;;;;;;;;;;;;;24.67;47.11;96960.69;619140;229;69364;-58
2023/04/29 07:05:26;;;;;;;;;;;;;;;24.67;45.09;96956.11;619084;229;63028;-58
2023/04/29 07:07:53;;;;;;;;;;;;;;;24.69;45.27;96961.16;619038;229;69217;-59
2023/04/29 07:10:21;;;;;;;;;;;;;;;24.71;45.41;96951.72;618534;227;68721;-58
2023/04/29 07:12:48;;;;;;;;;;;;;;;24.72;44.18;96958.70;618907;227;64903;-59
2023/04/29 07:15:16;;;;;;;;;;;;;;;24.74;46.41;96955.70;619839;228;69603;-59
2023/04/29 07:17:43;;;;;;;;;;;;;;;24.75;45.46;96952.73;619631;228;68667;-58
2023/04/29 07:20:11;;;;;;;;;;;;;;;24.77;45.29;96952.42;618254;227;65060;-59
2023/04/29 07:22:39;;;;;;;;;;;;;;;24.78;45.98;96949.45;620624;226;68892;-58
2023/04/29 07:25:06;;;;;;;;;;;;;;;24.79;45.81;96942.97;619113;228;66330;-59
2023/04/29 07:27:34;;;;;;;;;;;;;;;24.80;46.00;96947.27;618987;229;65078;-58
2023/04/29 07:30:03;;;;;;;;;;;;;;;24.82;44.54;96946.95;618129;228;68814;-58
2023/04/29 07:32:33;;;;;;;;;;;;;;;24.84;46.16;96943.98;619530;228;68697;-59
2023/04/29 07:35:03;;;;;;;;;;;;;;;24.84;44.51;96934.02;618912;228;41564;-59
2023/04/29 07:37:31;;;;;;;;;;;;;;;24.85;44.23;96935.60;618208;228;66367;-59
2023/04/29 07:39:58;;;;;;;;;;;;;;;24.86;47.12;96931.05;619048;229;67421;-59
2023/04/29 07:42:27;;;;;;;;;;;;;;;24.86;44.72;96925.67;618995;228;63030;-59
2023/04/29 07:44:57;;;;;;;;;;;;;;;24.89;46.16;96925.86;615227;227;48277;-59
2023/04/29 07:47:25;;;;;;;;;;;;;;;24.90;44.01;96932.82;617944;227;66018;-59
2023/04/29 07:49:52;;;;;;;;;;;;;;;24.92;46.47;96929.84;618302;229;62981;-59
2023/04/29 07:52:20;;;;;;;;;;;;;;;24.92;43.96;96925.27;619154;229;68648;-58
2023/04/29 07:54:49;;;;;;;;;;;;;;;24.93;45.06;96929.53;619053;229;69075;-59
2023/04/29 07:57:17;;;;;;;;;;;;;;;24.95;45.95;96924.66;619137;228;65043;-59
2023/04/29 07:59:44;;;;;;;;;;;;;;;24.97;41.87;96927.06;618113;228;68498;-59
2023/04/29 08:02:12;;;;;;;;;;;;;;;24.98;40.79;96924.06;619424;228;68368;-58
2023/04/29 08:04:41;;;;;;;;;;;;;;;25.00;44.90;96911.12;618660;228;64850;-58
2023/04/29 08:07:10;;;;;;;;;;;;;;;25.01;44.42;96915.39;619101;228;51371;-59
2023/04/29 08:09:38;;;;;;;;;;;;;;;25.03;45.33;96920.48;618016;228;69683;-59
2023/04/29 08:12:06;;;;;;;;;;;;;;;25.06;43.17;96914.50;609491;227;66808;-58
2023/04/29 08:14:33;;;;;;;;;;;;;;;25.09;42.45;96915.80;620138;228;66117;-58
2023/04/29 08:17:01;;;;;;;;;;;;;;;25.10;42.94;96917.38;619171;229;68712;-58
2023/04/29 08:19:28;;;;;;;;;;;;;;;25.12;45.04;96912.50;618809;229;65021;-58
2023/04/29 08:21:56;;;;;;;;;;;;;;;25.14;43.45;96921.08;618966;227;66887;-58
2023/04/29 08:24:23;;;;;;;;;;;;;;;25.17;40.92;96915.13;619514;228;66578;-58
2023/04/29 08:26:52;;;;;;;;;;;;;;;25.19;42.01;96910.25;618076;228;65035;-58
2023/04/29 08:29:20;;;;;;;;;;;;;;;25.22;40.82;96906.95;621059;227;68836;-59
2023/04/29 08:31:47;;;;;;;;;;;;;;;25.24;41.91;96910.94;619087;229;68668;-59
2023/04/29 08:34:15;;;;;;;;;;;;;;;25.26;42.15;96910.62;619151;229;65211;-59
2023/04/29 08:36:42;;;;;;;;;;;;;;;25.29;42.29;96901.16;619187;229;66708;-59
2023/04/29 08:39:09;;;;;;;;;;;;;;;25.32;40.88;96909.44;619190;229;66777;-58
2023/04/29 08:41:37;;;;;;;;;;;;;;;25.34;40.45;96909.91;613357;229;69086;-58
2023/04/29 08:44:05;;;;;;;;;;;;;;;25.37;40.73;96914.72;619036;228;66607;-58
2023/04/29 08:46:33;;;;;;;;;;;;;;;25.40;40.19;96911.42;618165;227;68802;-59
2023/04/29 08:49:03;;;;;;;;;;;;;;;25.43;40.05;96907.33;619167;229;65079;-59
2023/04/29 08:51:32;;;;;;;;;;;;;;;25.46;42.62;96904.82;618869;229;68815;-59
2023/04/29 08:53:59;;;;;;;;;;;;;;;25.47;40.40;96901.02;619852;227;68667;-59
2023/04/29 08:56:27;;;;;;;;;;;;;;;25.51;40.52;96898.54;619160;229;65067;-58
2023/04/29 08:58:57;;;;;;;;;;;;;;;25.53;40.76;96898.22;618636;228;68937;-59
2023/04/29 09:01:26;;;;;;;;;;;;;;;25.57;42.13;96902.70;619393;227;66669;-59
2023/04/29 09:03:55;;;;;;;;;;;;;;;25.58;40.46;96903.49;618575;229;62959;-59
2023/04/29 09:06:23;;;;;;;;;;;;;;;25.61;40.09;96900.19;618940;227;68671;-59
2023/04/29 09:08:50;;;;;;;;;;;;;;;25.62;39.97;96899.90;619248;228;68959;-59
2023/04/29 09:11:19;;;;;;;;;;;;;;;25.65;39.71;96890.42;619303;228;63521;-59
2023/04/29 09:13:46;;;;;;;;;;;;;;;25.68;40.74;96895.98;618325;227;68659;-59
2023/04/29 09:16:14;;;;;;;;;;;;;;;25.70;39.81;96890.31;619119;229;68622;-60
2023/04/29 09:18:43;;;;;;;;;;;;;;;25.73;39.77;96878.11;619137;229;62765;-59
2023/04/29 09:21:15;;;;;;;;;;;;;;;25.75;39.90;96881.30;619232;228;66538;-59
2023/04/29 09:23:42;;;;;;;;;;;;;;;25.76;39.77;96872.94;618150;228;66674;-59
2023/04/29 09:26:10;;;;;;;;;;;;;;;25.78;39.74;96876.13;610211;228;63865;-59
2023/04/29 09:28:40;;;;;;;;;;;;;;;25.81;39.74;96870.13;619963;228;68364;-59
2023/04/29 09:31:07;;;;;;;;;;;;;;;25.83;40.63;96872.50;619345;228;68714;-59
2023/04/29 09:33:53;;;;;;;;;;;;;;;25.84;40.75;96863.37;619163;228;62743;-59
2023/04/29 09:36:41;;;;;;;;;;;;;;;25.86;40.55;96867.34;619453;228;69049;-59
2023/04/29 09:39:12;;;;;;;;;;;;;;;25.87;39.82;96852.77;618686;228;66568;-58
2023/04/29 09:41:44;;;;;;;;;;;;;;;25.91;40.02;96855.64;619697;228;65058;-59
2023/04/29 09:44:12;;;;;;;;;;;;;;;25.93;39.80;96855.34;610309;228;68777;-58
2023/04/29 09:46:39;;;;;;;;;;;;;;;25.94;40.00;96848.84;619566;227;68464;-58
2023/04/29 09:49:08;;;;;;;;;;;;;;;25.95;39.87;96843.17;619047;228;65020;-59
2023/04/29 09:51:38;;;;;;;;;;;;;;;25.97;39.72;96842.84;618380;228;68781;-58
2023/04/29 09:54:07;;;;;;;;;;;;;;;25.99;40.08;96838.74;614397;229;66676;-58
2023/04/29 09:56:50;;;;;;;;;;;;;;;26.00;39.69;96834.15;617573;229;61935;-58
2023/04/29 09:59:18;;;;;;;;;;;;;;;26.02;39.97;96835.44;619190;228;68807;-58
2023/04/29 10:01:53;;;;;;;;;;;;;;;26.02;39.90;96826.56;618920;229;68731;-58
2023/04/29 10:04:22;;;;;;;;;;;;;;;26.05;39.75;96825.95;618760;228;62990;-58
2023/04/29 10:06:51;;;;;;;;;;;;;;;26.05;41.13;96831.33;618454;228;68904;-58
2023/04/29 10:09:19;;;;;;;;;;;;;;;26.06;40.59;96825.65;619116;229;68688;-57
2023/04/29 10:11:48;;;;;;;;;;;;;;;26.07;40.20;96826.44;618994;229;65347;-58
2023/04/29 10:14:16;;;;;;;;;;;;;;;26.08;40.26;96820.76;619126;229;68794;-58
2023/04/29 10:16:48;;;;;;;;;;;;;;;26.10;39.80;96817.73;619031;229;68530;-58
2023/04/29 10:19:17;;;;;;;;;;;;;;;26.11;40.13;96816.66;618246;229;65142;-58
2023/04/29 10:21:46;;;;;;;;;;;;;;;26.11;40.35;96809.36;618653;229;68740;-59
2023/04/29 10:24:15;;;;;;;;;;;;;;;26.11;41.01;96809.36;618262;228;65220;-59
2023/04/29 10:26:43;;;;;;;;;;;;;;;26.13;40.21;96814.42;619206;228;63005;-59
2023/04/29 10:29:11;;;;;;;;;;;;;;;26.13;40.09;96819.81;619015;229;68820;-59
2023/04/29 10:31:39;;;;;;;;;;;;;;;26.14;40.27;96813.34;618030;228;68761;-59
2023/04/29 10:34:07;;;;;;;;;;;;;;;26.14;39.93;96813.34;619138;229;65043;-60
2023/04/29 10:36:34;;;;;;;;;;;;;;;26.17;40.54;96803.84;619160;229;68718;-60
2023/04/29 10:39:04;;;;;;;;;;;;;;;26.17;39.75;96801.16;619119;229;68741;-59
2023/04/29 10:41:36;;;;;;;;;;;;;;;26.18;40.70;96810.81;619415;228;65118;-59
2023/04/29 10:44:04;;;;;;;;;;;;;;;26.18;40.18;96802.73;619126;229;68388;-59
2023/04/29 10:46:32;;;;;;;;;;;;;;;26.18;39.96;96813.51;618703;228;68665;-59
2023/04/29 10:49:08;;;;;;;;;;;;;;;26.17;41.11;96807.33;618557;228;62927;-60
2023/04/29 10:51:37;;;;;;;;;;;;;;;26.19;40.35;96809.70;619063;227;66944;-58
2023/04/29 10:54:09;;;;;;;;;;;;;;;26.19;40.83;96805.13;619046;229;66712;-58
2023/04/29 10:56:45;;;;;;;;;;;;;;;26.19;39.59;96802.44;619144;229;63023;-59
2023/04/29 10:59:13;;;;;;;;;;;;;;;26.20;40.34;96803.22;619057;229;67749;-60
2023/04/29 11:01:42;;;;;;;;;;;;;;;26.19;41.00;96791.66;619134;229;68971;-57
2023/04/29 11:04:10;;;;;;;;;;;;;;;26.21;40.12;96792.13;619135;229;65047;-57
2023/04/29 11:06:40;;;;;;;;;;;;;;;26.21;39.52;96791.34;619179;229;68750;-58
2023/04/29 11:09:21;;;;;;;;;;;;;;;26.20;41.72;96787.86;619079;229;68679;-58
2023/04/29 11:11:52;;;;;;;;;;;;;;;26.20;40.05;96787.86;619066;227;63077;-58
2023/04/29 11:14:23;;;;;;;;;;;;;;;26.20;40.00;96795.94;619306;228;66995;-58
2023/04/29 11:16:52;;;;;;;;;;;;;;;26.21;40.25;96785.95;617790;227;68561;-58
2023/04/29 11:19:19;;;;;;;;;;;;;;;26.20;40.47;96779.77;619097;227;62987;-58
2023/04/29 11:21:47;;;;;;;;;;;;;;;26.21;43.85;96783.25;618790;227;68856;-58
2023/04/29 11:24:16;;;;;;;;;;;;;;;26.20;39.61;96771.69;621332;227;68708;-58
2023/04/29 11:26:45;;;;;;;;;;;;;;;26.20;42.91;96773.59;618780;228;62771;-58
2023/04/29 11:29:12;;;;;;;;;;;;;;;26.19;40.44;96772.81;619070;228;68815;-58
2023/04/29 11:31:40;;;;;;;;;;;;;;;26.20;40.92;96777.08;619205;229;68547;-58
2023/04/29 11:34:07;;;;;;;;;;;;;;;26.19;40.55;96770.12;619723;227;64950;-58
2023/04/29 11:36:35;;;;;;;;;;;;;;;26.19;41.66;96767.42;619715;228;68807;-58
2023/04/29 11:39:04;;;;;;;;;;;;;;;26.20;41.32;96760.13;618720;228;69005;-58
2023/04/29 11:41:31;;;;;;;;;;;;;;;26.19;42.51;96753.95;619653;227;62895;-59
2023/04/29 11:43:59;;;;;;;;;;;;;;;26.19;42.08;96759.34;618076;228;68914;-59
2023/04/29 11:46:29;;;;;;;;;;;;;;;26.19;40.40;96762.03;619154;229;68627;-59
2023/04/29 11:48:58;;;;;;;;;;;;;;;26.20;40.31;96752.84;619124;227;65025;-59
2023/04/29 11:51:27;;;;;;;;;;;;;;;26.19;44.17;96745.87;619073;229;67476;-59
2023/04/29 11:53:56;;;;;;;;;;;;;;;26.19;40.67;96751.27;619116;229;68491;-59
2023/04/29 11:56:24;;;;;;;;;;;;;;;26.18;39.97;96757.73;619197;229;62942;-59
2023/04/29 11:58:55;;;;;;;;;;;;;;;26.17;40.60;96744.59;619189;229;68308;-59
2023/04/29 12:01:25;;;;;;;;;;;;;;;26.18;42.85;96760.42;619085;229;66449;-59
2023/04/29 12:03:54;;;;;;;;;;;;;;;26.17;41.65;96736.52;618691;227;65210;-59
2023/04/29 12:06:21;;;;;;;;;;;;;;;26.16;41.63;96732.22;620032;228;68817;-59
2023/04/29 12:08:49;;;;;;;;;;;;;;;26.16;42.75;96730.31;619070;228;68490;-59
2023/04/29 12:11:16;;;;;;;;;;;;;;;26.16;43.94;96724.13;619943;228;65050;-59
2023/04/29 12:13:45;;;;;;;;;;;;;;;26.15;41.26;96717.96;619754;227;68462;-59
2023/04/29 12:16:12;;;;;;;;;;;;;;;26.16;41.29;96713.36;619023;228;68490;-59
2023/04/29 12:18:40;;;;;;;;;;;;;;;26.15;40.48;96715.27;618365;228;64981;-59
2023/04/29 12:21:08;;;;;;;;;;;;;;;26.16;42.48;96724.13;619170;229;68794;-59
2023/04/29 12:23:36;;;;;;;;;;;;;;;26.15;40.54;96726.05;619149;229;68669;-59
2023/04/29 12:26:03;;;;;;;;;;;;;;;26.15;41.34;96709.88;619109;229;63026;-59
2023/04/29 12:28:31;;;;;;;;;;;;;;;26.14;40.08;96716.39;619134;229;66662;-59
2023/04/29 12:30:58;;;;;;;;;;;;;;;26.14;39.97;96719.08;619117;229;66704;-59
2023/04/29 12:33:27;;;;;;;;;;;;;;;26.13;41.35;96710.18;612676;229;62879;-58
2023/04/29 12:35:56;;;;;;;;;;;;;;;26.13;41.64;96710.18;618543;229;66604;-58
2023/04/29 12:38:32;;;;;;;;;;;;;;;26.12;43.87;96703.22;619234;229;49612;-59
2023/04/29 12:41:00;;;;;;;;;;;;;;;26.12;41.32;96713.20;617244;229;65113;-58
2023/04/29 12:43:28;;;;;;;;;;;;;;;26.11;41.54;96703.55;619518;228;66660;-58
2023/04/29 12:46:02;;;;;;;;;;;;;;;26.12;40.26;96707.81;618907;228;66397;-58
2023/04/29 12:48:31;;;;;;;;;;;;;;;26.11;40.53;96704.34;619121;229;62791;-58
2023/04/29 12:50:58;;;;;;;;;;;;;;;26.11;41.08;96703.55;618457;227;68887;-58
2023/04/29 12:53:26;;;;;;;;;;;;;;;26.10;40.10;96704.63;618888;228;68859;-59
2023/04/29 12:55:54;;;;;;;;;;;;;;;26.10;40.21;96702.73;618551;229;65014;-58